sensor_id;sensor_type;location;lat;lon;timestamp;P1;durP1;ratioP1;P2;durP2;ratioP2
19084;SDS011;9675;51.538;6.728;2022-11-23T00:01:16;3.73;;;1.47;;
19084;SDS011;9675;51.538;6.728;2022-11-23T00:03:45;1.57;;;1.07;;
19084;SDS011;9675;51.538;6.728;2022-11-23T00:06:17;2.37;;;1.40;;
19084;SDS011;9675;51.538;6.728;2022-11-23T00:08:46;8.50;;;1.10;;
19084;SDS011;9675;51.538;6.728;2022-11-23T00:11:14;7.07;;;1.53;;
19084;SDS011;9675;51.538;6.728;2022-11-23T00:13:42;2.93;;;1.27;;
19084;SDS011;9675;51.538;6.728;2022-11-23T00:16:11;2.90;;;1.30;;
19084;SDS011;9675;51.538;6.728;2022-11-23T00:18:41;5.27;;;0.87;;
19084;SDS011;9675;51.538;6.728;2022-11-23T00:21:08;6.00;;;1.50;;
19084;SDS011;9675;51.538;6.728;2022-11-23T00:23:39;5.03;;;0.90;;
19084;SDS011;9675;51.538;6.728;2022-11-23T00:26:07;4.63;;;1.10;;
19084;SDS011;9675;51.538;6.728;2022-11-23T00:28:34;2.17;;;1.03;;
19084;SDS011;9675;51.538;6.728;2022-11-23T00:31:04;4.37;;;1.10;;
19084;SDS011;9675;51.538;6.728;2022-11-23T00:33:31;6.20;;;1.43;;
19084;SDS011;9675;51.538;6.728;2022-11-23T00:35:59;1.83;;;0.93;;
19084;SDS011;9675;51.538;6.728;2022-11-23T00:38:26;2.27;;;1.30;;
19084;SDS011;9675;51.538;6.728;2022-11-23T00:40:59;8.40;;;1.20;;
19084;SDS011;9675;51.538;6.728;2022-11-23T00:43:29;5.60;;;1.37;;
19084;SDS011;9675;51.538;6.728;2022-11-23T00:46:01;9.67;;;1.60;;
19084;SDS011;9675;51.538;6.728;2022-11-23T00:48:34;3.20;;;1.30;;
19084;SDS011;9675;51.538;6.728;2022-11-23T00:51:02;4.53;;;1.40;;
19084;SDS011;9675;51.538;6.728;2022-11-23T00:53:32;9.37;;;2.07;;
19084;SDS011;9675;51.538;6.728;2022-11-23T00:56:01;8.17;;;1.30;;
19084;SDS011;9675;51.538;6.728;2022-11-23T00:58:29;4.43;;;1.53;;
19084;SDS011;9675;51.538;6.728;2022-11-23T01:01:01;4.23;;;1.00;;
19084;SDS011;9675;51.538;6.728;2022-11-23T01:03:31;1.10;;;0.63;;
19084;SDS011;9675;51.538;6.728;2022-11-23T01:06:03;6.10;;;0.83;;
19084;SDS011;9675;51.538;6.728;2022-11-23T01:08:33;3.40;;;0.80;;
19084;SDS011;9675;51.538;6.728;2022-11-23T01:11:04;3.80;;;1.07;;
19084;SDS011;9675;51.538;6.728;2022-11-23T01:13:34;3.37;;;0.67;;
19084;SDS011;9675;51.538;6.728;2022-11-23T01:16:02;1.67;;;0.60;;
19084;SDS011;9675;51.538;6.728;2022-11-23T01:18:30;1.93;;;0.60;;
19084;SDS011;9675;51.538;6.728;2022-11-23T01:20:57;1.20;;;0.50;;
19084;SDS011;9675;51.538;6.728;2022-11-23T01:23:27;1.13;;;0.50;;
19084;SDS011;9675;51.538;6.728;2022-11-23T01:25:54;8.47;;;0.93;;
19084;SDS011;9675;51.538;6.728;2022-11-23T01:28:22;2.27;;;0.67;;
19084;SDS011;9675;51.538;6.728;2022-11-23T01:30:50;5.53;;;1.00;;
19084;SDS011;9675;51.538;6.728;2022-11-23T01:33:17;3.73;;;0.63;;
19084;SDS011;9675;51.538;6.728;2022-11-23T01:35:44;5.07;;;0.87;;
19084;SDS011;9675;51.538;6.728;2022-11-23T01:38:11;5.17;;;1.40;;
19084;SDS011;9675;51.538;6.728;2022-11-23T01:40:38;9.13;;;2.00;;
19084;SDS011;9675;51.538;6.728;2022-11-23T01:43:09;4.43;;;1.80;;
19084;SDS011;9675;51.538;6.728;2022-11-23T01:45:43;9.57;;;3.33;;
19084;SDS011;9675;51.538;6.728;2022-11-23T01:48:22;20.00;;;6.53;;
19084;SDS011;9675;51.538;6.728;2022-11-23T01:50:53;9.50;;;4.47;;
19084;SDS011;9675;51.538;6.728;2022-11-23T01:53:24;5.07;;;2.23;;
19084;SDS011;9675;51.538;6.728;2022-11-23T01:55:55;2.33;;;0.67;;
19084;SDS011;9675;51.538;6.728;2022-11-23T01:58:28;2.77;;;1.00;;
19084;SDS011;9675;51.538;6.728;2022-11-23T02:01:03;4.07;;;1.00;;
19084;SDS011;9675;51.538;6.728;2022-11-23T02:03:31;3.43;;;0.57;;
19084;SDS011;9675;51.538;6.728;2022-11-23T02:06:03;7.07;;;1.17;;
19084;SDS011;9675;51.538;6.728;2022-11-23T02:08:38;3.70;;;0.67;;
19084;SDS011;9675;51.538;6.728;2022-11-23T02:11:06;5.10;;;0.70;;
19084;SDS011;9675;51.538;6.728;2022-11-23T02:13:35;0.87;;;0.60;;
19084;SDS011;9675;51.538;6.728;2022-11-23T02:16:04;3.17;;;0.60;;
19084;SDS011;9675;51.538;6.728;2022-11-23T02:18:32;1.23;;;0.97;;
19084;SDS011;9675;51.538;6.728;2022-11-23T02:21:02;4.17;;;0.70;;
19084;SDS011;9675;51.538;6.728;2022-11-23T02:23:32;2.10;;;0.70;;
19084;SDS011;9675;51.538;6.728;2022-11-23T02:26:12;2.00;;;0.80;;
19084;SDS011;9675;51.538;6.728;2022-11-23T02:28:44;1.77;;;1.07;;
19084;SDS011;9675;51.538;6.728;2022-11-23T02:31:17;2.57;;;1.40;;
19084;SDS011;9675;51.538;6.728;2022-11-23T02:33:44;6.20;;;1.63;;
19084;SDS011;9675;51.538;6.728;2022-11-23T02:36:29;1.57;;;0.50;;
19084;SDS011;9675;51.538;6.728;2022-11-23T02:39:06;1.10;;;0.70;;
19084;SDS011;9675;51.538;6.728;2022-11-23T02:41:39;1.40;;;0.50;;
19084;SDS011;9675;51.538;6.728;2022-11-23T02:44:11;1.20;;;0.40;;
19084;SDS011;9675;51.538;6.728;2022-11-23T02:46:49;1.73;;;0.47;;
19084;SDS011;9675;51.538;6.728;2022-11-23T02:49:17;1.27;;;0.63;;
19084;SDS011;9675;51.538;6.728;2022-11-23T02:51:44;2.63;;;0.60;;
19084;SDS011;9675;51.538;6.728;2022-11-23T02:54:12;4.07;;;0.60;;
19084;SDS011;9675;51.538;6.728;2022-11-23T02:56:40;3.73;;;0.67;;
19084;SDS011;9675;51.538;6.728;2022-11-23T02:59:07;1.40;;;0.67;;
19084;SDS011;9675;51.538;6.728;2022-11-23T03:01:34;4.87;;;1.00;;
19084;SDS011;9675;51.538;6.728;2022-11-23T03:04:03;1.17;;;0.60;;
19084;SDS011;9675;51.538;6.728;2022-11-23T03:06:31;0.73;;;0.40;;
19084;SDS011;9675;51.538;6.728;2022-11-23T03:08:58;2.03;;;0.90;;
19084;SDS011;9675;51.538;6.728;2022-11-23T03:11:25;3.50;;;0.83;;
19084;SDS011;9675;51.538;6.728;2022-11-23T03:13:53;3.50;;;0.70;;
19084;SDS011;9675;51.538;6.728;2022-11-23T03:16:20;4.97;;;0.93;;
19084;SDS011;9675;51.538;6.728;2022-11-23T03:18:47;7.37;;;1.43;;
19084;SDS011;9675;51.538;6.728;2022-11-23T03:21:15;3.00;;;1.10;;
19084;SDS011;9675;51.538;6.728;2022-11-23T03:23:42;4.23;;;0.70;;
19084;SDS011;9675;51.538;6.728;2022-11-23T03:26:10;5.00;;;1.30;;
19084;SDS011;9675;51.538;6.728;2022-11-23T03:28:37;6.57;;;1.60;;
19084;SDS011;9675;51.538;6.728;2022-11-23T03:31:05;3.90;;;0.90;;
19084;SDS011;9675;51.538;6.728;2022-11-23T03:33:33;6.07;;;0.90;;
19084;SDS011;9675;51.538;6.728;2022-11-23T03:36:00;6.23;;;1.37;;
19084;SDS011;9675;51.538;6.728;2022-11-23T03:38:27;4.87;;;1.50;;
19084;SDS011;9675;51.538;6.728;2022-11-23T03:40:54;6.10;;;1.27;;
19084;SDS011;9675;51.538;6.728;2022-11-23T03:43:21;2.80;;;0.90;;
19084;SDS011;9675;51.538;6.728;2022-11-23T03:45:49;4.30;;;1.00;;
19084;SDS011;9675;51.538;6.728;2022-11-23T03:48:17;2.53;;;1.10;;
19084;SDS011;9675;51.538;6.728;2022-11-23T03:50:44;11.43;;;1.83;;
19084;SDS011;9675;51.538;6.728;2022-11-23T03:53:11;1.67;;;0.93;;
19084;SDS011;9675;51.538;6.728;2022-11-23T03:55:38;4.90;;;1.47;;
19084;SDS011;9675;51.538;6.728;2022-11-23T03:58:05;8.17;;;1.53;;
19084;SDS011;9675;51.538;6.728;2022-11-23T04:00:32;7.87;;;1.37;;
19084;SDS011;9675;51.538;6.728;2022-11-23T04:03:00;6.27;;;1.63;;
19084;SDS011;9675;51.538;6.728;2022-11-23T04:05:28;4.03;;;0.87;;
19084;SDS011;9675;51.538;6.728;2022-11-23T04:07:55;5.20;;;0.97;;
19084;SDS011;9675;51.538;6.728;2022-11-23T04:10:22;6.43;;;1.67;;
19084;SDS011;9675;51.538;6.728;2022-11-23T04:12:50;7.63;;;1.00;;
19084;SDS011;9675;51.538;6.728;2022-11-23T04:15:18;2.43;;;0.60;;
19084;SDS011;9675;51.538;6.728;2022-11-23T04:17:46;5.90;;;0.90;;
19084;SDS011;9675;51.538;6.728;2022-11-23T04:20:13;5.50;;;1.20;;
19084;SDS011;9675;51.538;6.728;2022-11-23T04:22:42;9.07;;;1.57;;
19084;SDS011;9675;51.538;6.728;2022-11-23T04:25:09;3.80;;;0.90;;
19084;SDS011;9675;51.538;6.728;2022-11-23T04:27:36;9.53;;;1.83;;
19084;SDS011;9675;51.538;6.728;2022-11-23T04:30:03;1.43;;;0.90;;
19084;SDS011;9675;51.538;6.728;2022-11-23T04:32:32;8.67;;;1.40;;
19084;SDS011;9675;51.538;6.728;2022-11-23T04:34:59;4.37;;;1.30;;
19084;SDS011;9675;51.538;6.728;2022-11-23T04:37:26;5.33;;;1.20;;
19084;SDS011;9675;51.538;6.728;2022-11-23T04:39:54;6.43;;;1.40;;
19084;SDS011;9675;51.538;6.728;2022-11-23T04:42:21;12.17;;;1.17;;
19084;SDS011;9675;51.538;6.728;2022-11-23T04:44:48;5.67;;;1.60;;
19084;SDS011;9675;51.538;6.728;2022-11-23T04:47:15;7.27;;;1.30;;
19084;SDS011;9675;51.538;6.728;2022-11-23T04:49:42;1.77;;;0.93;;
19084;SDS011;9675;51.538;6.728;2022-11-23T04:52:09;2.53;;;0.87;;
19084;SDS011;9675;51.538;6.728;2022-11-23T04:54:36;4.77;;;1.00;;
19084;SDS011;9675;51.538;6.728;2022-11-23T04:57:05;5.10;;;1.30;;
19084;SDS011;9675;51.538;6.728;2022-11-23T04:59:32;3.23;;;1.30;;
19084;SDS011;9675;51.538;6.728;2022-11-23T05:01:59;5.07;;;1.27;;
19084;SDS011;9675;51.538;6.728;2022-11-23T05:04:26;11.80;;;1.73;;
19084;SDS011;9675;51.538;6.728;2022-11-23T05:06:53;6.33;;;1.73;;
19084;SDS011;9675;51.538;6.728;2022-11-23T05:09:20;13.40;;;2.63;;
19084;SDS011;9675;51.538;6.728;2022-11-23T05:11:47;7.20;;;1.40;;
19084;SDS011;9675;51.538;6.728;2022-11-23T05:14:16;6.20;;;1.70;;
19084;SDS011;9675;51.538;6.728;2022-11-23T05:16:43;5.33;;;1.10;;
19084;SDS011;9675;51.538;6.728;2022-11-23T05:19:10;8.20;;;1.60;;
19084;SDS011;9675;51.538;6.728;2022-11-23T05:21:37;5.23;;;1.10;;
19084;SDS011;9675;51.538;6.728;2022-11-23T05:24:04;2.43;;;1.37;;
19084;SDS011;9675;51.538;6.728;2022-11-23T05:26:31;3.00;;;1.03;;
19084;SDS011;9675;51.538;6.728;2022-11-23T05:28:58;6.83;;;1.07;;
19084;SDS011;9675;51.538;6.728;2022-11-23T05:31:27;4.00;;;1.10;;
19084;SDS011;9675;51.538;6.728;2022-11-23T05:33:54;6.23;;;1.27;;
19084;SDS011;9675;51.538;6.728;2022-11-23T05:36:21;2.23;;;0.70;;
19084;SDS011;9675;51.538;6.728;2022-11-23T05:38:48;4.13;;;0.80;;
19084;SDS011;9675;51.538;6.728;2022-11-23T05:41:15;5.43;;;0.80;;
19084;SDS011;9675;51.538;6.728;2022-11-23T05:43:42;2.60;;;1.07;;
19084;SDS011;9675;51.538;6.728;2022-11-23T05:46:09;2.80;;;0.67;;
19084;SDS011;9675;51.538;6.728;2022-11-23T05:48:38;7.70;;;1.60;;
19084;SDS011;9675;51.538;6.728;2022-11-23T05:51:05;1.90;;;1.20;;
19084;SDS011;9675;51.538;6.728;2022-11-23T05:53:32;6.17;;;1.20;;
19084;SDS011;9675;51.538;6.728;2022-11-23T05:55:59;9.80;;;2.10;;
19084;SDS011;9675;51.538;6.728;2022-11-23T05:58:26;3.33;;;1.40;;
19084;SDS011;9675;51.538;6.728;2022-11-23T06:00:55;7.80;;;1.87;;
19084;SDS011;9675;51.538;6.728;2022-11-23T06:03:23;2.90;;;1.30;;
19084;SDS011;9675;51.538;6.728;2022-11-23T06:05:52;12.40;;;3.03;;
19084;SDS011;9675;51.538;6.728;2022-11-23T06:08:19;8.60;;;1.60;;
19084;SDS011;9675;51.538;6.728;2022-11-23T06:10:46;7.60;;;2.43;;
19084;SDS011;9675;51.538;6.728;2022-11-23T06:13:13;5.23;;;1.60;;
19084;SDS011;9675;51.538;6.728;2022-11-23T06:15:40;2.93;;;1.23;;
19084;SDS011;9675;51.538;6.728;2022-11-23T06:18:07;8.63;;;2.07;;
19084;SDS011;9675;51.538;6.728;2022-11-23T06:20:35;4.83;;;1.70;;
19084;SDS011;9675;51.538;6.728;2022-11-23T06:23:03;2.97;;;1.17;;
19084;SDS011;9675;51.538;6.728;2022-11-23T06:25:30;6.80;;;1.70;;
19084;SDS011;9675;51.538;6.728;2022-11-23T06:27:58;7.53;;;1.47;;
19084;SDS011;9675;51.538;6.728;2022-11-23T06:30:27;6.97;;;1.10;;
19084;SDS011;9675;51.538;6.728;2022-11-23T06:32:55;4.17;;;1.73;;
19084;SDS011;9675;51.538;6.728;2022-11-23T06:35:22;8.17;;;1.40;;
19084;SDS011;9675;51.538;6.728;2022-11-23T06:37:50;9.90;;;1.70;;
19084;SDS011;9675;51.538;6.728;2022-11-23T06:40:20;5.60;;;1.50;;
19084;SDS011;9675;51.538;6.728;2022-11-23T06:42:48;6.07;;;1.30;;
19084;SDS011;9675;51.538;6.728;2022-11-23T06:45:15;9.23;;;1.50;;
19084;SDS011;9675;51.538;6.728;2022-11-23T06:47:42;3.43;;;1.10;;
19084;SDS011;9675;51.538;6.728;2022-11-23T06:50:09;5.77;;;1.10;;
19084;SDS011;9675;51.538;6.728;2022-11-23T06:52:38;3.97;;;1.03;;
19084;SDS011;9675;51.538;6.728;2022-11-23T06:55:05;7.30;;;1.30;;
19084;SDS011;9675;51.538;6.728;2022-11-23T06:57:34;6.60;;;1.47;;
19084;SDS011;9675;51.538;6.728;2022-11-23T07:00:02;5.80;;;1.40;;
19084;SDS011;9675;51.538;6.728;2022-11-23T07:02:30;4.27;;;1.10;;
19084;SDS011;9675;51.538;6.728;2022-11-23T07:04:57;6.40;;;1.10;;
19084;SDS011;9675;51.538;6.728;2022-11-23T07:07:24;7.33;;;1.77;;
19084;SDS011;9675;51.538;6.728;2022-11-23T07:09:51;5.80;;;1.50;;
19084;SDS011;9675;51.538;6.728;2022-11-23T07:12:18;8.83;;;1.40;;
19084;SDS011;9675;51.538;6.728;2022-11-23T07:14:47;2.37;;;1.00;;
19084;SDS011;9675;51.538;6.728;2022-11-23T07:17:14;6.13;;;1.33;;
19084;SDS011;9675;51.538;6.728;2022-11-23T07:19:41;4.67;;;1.30;;
19084;SDS011;9675;51.538;6.728;2022-11-23T07:22:08;10.93;;;2.43;;
19084;SDS011;9675;51.538;6.728;2022-11-23T07:24:35;5.87;;;1.97;;
19084;SDS011;9675;51.538;6.728;2022-11-23T07:27:02;8.37;;;2.37;;
19084;SDS011;9675;51.538;6.728;2022-11-23T07:29:29;5.50;;;2.20;;
19084;SDS011;9675;51.538;6.728;2022-11-23T07:31:58;6.70;;;2.67;;
19084;SDS011;9675;51.538;6.728;2022-11-23T07:34:26;11.43;;;2.80;;
19084;SDS011;9675;51.538;6.728;2022-11-23T07:36:53;11.80;;;2.43;;
19084;SDS011;9675;51.538;6.728;2022-11-23T07:39:21;4.73;;;2.10;;
19084;SDS011;9675;51.538;6.728;2022-11-23T07:41:48;7.60;;;2.03;;
19084;SDS011;9675;51.538;6.728;2022-11-23T07:44:15;12.57;;;2.37;;
19084;SDS011;9675;51.538;6.728;2022-11-23T07:46:42;9.93;;;1.97;;
19084;SDS011;9675;51.538;6.728;2022-11-23T07:49:11;10.73;;;3.00;;
19084;SDS011;9675;51.538;6.728;2022-11-23T07:51:37;11.77;;;2.60;;
19084;SDS011;9675;51.538;6.728;2022-11-23T07:54:05;5.43;;;1.80;;
19084;SDS011;9675;51.538;6.728;2022-11-23T07:56:32;9.50;;;1.90;;
19084;SDS011;9675;51.538;6.728;2022-11-23T07:58:59;7.07;;;1.90;;
19084;SDS011;9675;51.538;6.728;2022-11-23T08:01:26;13.87;;;2.67;;
19084;SDS011;9675;51.538;6.728;2022-11-23T08:03:55;9.03;;;2.47;;
19084;SDS011;9675;51.538;6.728;2022-11-23T08:06:24;8.23;;;2.90;;
19084;SDS011;9675;51.538;6.728;2022-11-23T08:08:51;6.17;;;2.10;;
19084;SDS011;9675;51.538;6.728;2022-11-23T08:11:19;4.10;;;2.00;;
19084;SDS011;9675;51.538;6.728;2022-11-23T08:13:46;16.17;;;1.77;;
19084;SDS011;9675;51.538;6.728;2022-11-23T08:16:13;3.67;;;1.13;;
19084;SDS011;9675;51.538;6.728;2022-11-23T08:18:40;3.63;;;1.20;;
19084;SDS011;9675;51.538;6.728;2022-11-23T08:21:07;1.60;;;1.00;;
19084;SDS011;9675;51.538;6.728;2022-11-23T08:23:36;3.03;;;1.00;;
19084;SDS011;9675;51.538;6.728;2022-11-23T08:26:03;4.43;;;1.07;;
19084;SDS011;9675;51.538;6.728;2022-11-23T08:28:30;5.50;;;0.83;;
19084;SDS011;9675;51.538;6.728;2022-11-23T08:30:58;6.53;;;2.00;;
19084;SDS011;9675;51.538;6.728;2022-11-23T08:33:31;11.60;;;4.37;;
19084;SDS011;9675;51.538;6.728;2022-11-23T08:36:01;5.07;;;1.50;;
19084;SDS011;9675;51.538;6.728;2022-11-23T08:38:30;3.53;;;1.60;;
19084;SDS011;9675;51.538;6.728;2022-11-23T08:40:59;4.17;;;1.73;;
19084;SDS011;9675;51.538;6.728;2022-11-23T08:43:27;7.50;;;1.63;;
19084;SDS011;9675;51.538;6.728;2022-11-23T08:45:55;4.47;;;1.17;;
19084;SDS011;9675;51.538;6.728;2022-11-23T08:48:23;11.77;;;1.10;;
19084;SDS011;9675;51.538;6.728;2022-11-23T08:50:51;3.83;;;0.83;;
19084;SDS011;9675;51.538;6.728;2022-11-23T08:53:19;2.53;;;1.40;;
19084;SDS011;9675;51.538;6.728;2022-11-23T08:55:46;6.60;;;2.00;;
19084;SDS011;9675;51.538;6.728;2022-11-23T08:58:14;3.87;;;1.00;;
19084;SDS011;9675;51.538;6.728;2022-11-23T09:00:41;5.70;;;1.57;;
19084;SDS011;9675;51.538;6.728;2022-11-23T09:03:08;2.40;;;0.90;;
19084;SDS011;9675;51.538;6.728;2022-11-23T09:05:36;6.73;;;1.33;;
19084;SDS011;9675;51.538;6.728;2022-11-23T09:08:04;3.03;;;0.97;;
19084;SDS011;9675;51.538;6.728;2022-11-23T09:10:31;5.47;;;0.90;;
19084;SDS011;9675;51.538;6.728;2022-11-23T09:12:58;3.87;;;1.10;;
19084;SDS011;9675;51.538;6.728;2022-11-23T09:15:27;2.73;;;0.57;;
19084;SDS011;9675;51.538;6.728;2022-11-23T09:17:54;6.57;;;1.33;;
19084;SDS011;9675;51.538;6.728;2022-11-23T09:20:22;2.97;;;1.10;;
19084;SDS011;9675;51.538;6.728;2022-11-23T09:22:49;8.10;;;1.53;;
19084;SDS011;9675;51.538;6.728;2022-11-23T09:25:17;8.23;;;1.53;;
19084;SDS011;9675;51.538;6.728;2022-11-23T09:27:45;4.13;;;1.50;;
19084;SDS011;9675;51.538;6.728;2022-11-23T09:30:13;3.03;;;1.17;;
19084;SDS011;9675;51.538;6.728;2022-11-23T09:32:42;11.43;;;0.93;;
19084;SDS011;9675;51.538;6.728;2022-11-23T09:35:09;5.83;;;1.10;;
19084;SDS011;9675;51.538;6.728;2022-11-23T09:37:36;11.43;;;1.57;;
19084;SDS011;9675;51.538;6.728;2022-11-23T09:40:04;4.83;;;1.00;;
19084;SDS011;9675;51.538;6.728;2022-11-23T09:42:39;3.00;;;1.00;;
19084;SDS011;9675;51.538;6.728;2022-11-23T09:45:25;5.13;;;0.80;;
19084;SDS011;9675;51.538;6.728;2022-11-23T09:48:13;4.63;;;1.10;;
19084;SDS011;9675;51.538;6.728;2022-11-23T09:50:58;2.67;;;0.87;;
19084;SDS011;9675;51.538;6.728;2022-11-23T09:53:32;6.60;;;1.27;;
19084;SDS011;9675;51.538;6.728;2022-11-23T09:56:12;6.20;;;0.93;;
19084;SDS011;9675;51.538;6.728;2022-11-23T09:58:44;6.37;;;0.90;;
19084;SDS011;9675;51.538;6.728;2022-11-23T10:01:14;4.43;;;0.80;;
19084;SDS011;9675;51.538;6.728;2022-11-23T10:03:44;3.70;;;0.90;;
19084;SDS011;9675;51.538;6.728;2022-11-23T10:06:15;5.47;;;1.33;;
19084;SDS011;9675;51.538;6.728;2022-11-23T10:08:47;7.70;;;0.93;;
19084;SDS011;9675;51.538;6.728;2022-11-23T10:11:42;3.43;;;0.80;;
19084;SDS011;9675;51.538;6.728;2022-11-23T10:14:44;9.63;;;2.07;;
19084;SDS011;9675;51.538;6.728;2022-11-23T10:17:27;5.90;;;1.23;;
19084;SDS011;9675;51.538;6.728;2022-11-23T10:20:19;5.10;;;1.80;;
19084;SDS011;9675;51.538;6.728;2022-11-23T10:23:16;8.30;;;1.10;;
19084;SDS011;9675;51.538;6.728;2022-11-23T10:26:01;8.23;;;1.40;;
19084;SDS011;9675;51.538;6.728;2022-11-23T10:28:29;4.20;;;1.57;;
19084;SDS011;9675;51.538;6.728;2022-11-23T10:31:00;5.93;;;1.43;;
19084;SDS011;9675;51.538;6.728;2022-11-23T10:33:40;7.77;;;1.10;;
19084;SDS011;9675;51.538;6.728;2022-11-23T10:36:20;4.83;;;0.93;;
19084;SDS011;9675;51.538;6.728;2022-11-23T10:38:48;4.17;;;1.10;;
19084;SDS011;9675;51.538;6.728;2022-11-23T10:41:20;3.13;;;1.00;;
19084;SDS011;9675;51.538;6.728;2022-11-23T10:43:48;5.33;;;1.43;;
19084;SDS011;9675;51.538;6.728;2022-11-23T10:46:23;10.37;;;1.27;;
19084;SDS011;9675;51.538;6.728;2022-11-23T10:49:11;5.97;;;1.60;;
19084;SDS011;9675;51.538;6.728;2022-11-23T10:51:51;6.47;;;1.30;;
19084;SDS011;9675;51.538;6.728;2022-11-23T10:54:24;4.97;;;1.27;;
19084;SDS011;9675;51.538;6.728;2022-11-23T10:56:56;4.60;;;1.20;;
19084;SDS011;9675;51.538;6.728;2022-11-23T10:59:26;16.47;;;1.87;;
19084;SDS011;9675;51.538;6.728;2022-11-23T11:02:00;8.43;;;1.33;;
19084;SDS011;9675;51.538;6.728;2022-11-23T11:04:40;1.57;;;0.73;;
19084;SDS011;9675;51.538;6.728;2022-11-23T11:07:25;7.87;;;1.47;;
19084;SDS011;9675;51.538;6.728;2022-11-23T11:09:55;6.33;;;1.20;;
19084;SDS011;9675;51.538;6.728;2022-11-23T11:12:24;13.73;;;1.47;;
19084;SDS011;9675;51.538;6.728;2022-11-23T11:14:54;10.23;;;1.20;;
19084;SDS011;9675;51.538;6.728;2022-11-23T11:17:28;3.63;;;1.20;;
19084;SDS011;9675;51.538;6.728;2022-11-23T11:19:57;7.13;;;1.50;;
19084;SDS011;9675;51.538;6.728;2022-11-23T11:22:33;7.60;;;1.40;;
19084;SDS011;9675;51.538;6.728;2022-11-23T11:25:02;3.70;;;1.20;;
19084;SDS011;9675;51.538;6.728;2022-11-23T11:27:32;1.27;;;0.50;;
19084;SDS011;9675;51.538;6.728;2022-11-23T11:30:02;5.63;;;0.80;;
19084;SDS011;9675;51.538;6.728;2022-11-23T11:32:38;2.00;;;0.70;;
19084;SDS011;9675;51.538;6.728;2022-11-23T11:35:16;3.83;;;1.07;;
19084;SDS011;9675;51.538;6.728;2022-11-23T11:37:54;3.63;;;0.80;;
19084;SDS011;9675;51.538;6.728;2022-11-23T11:40:28;4.70;;;1.10;;
19084;SDS011;9675;51.538;6.728;2022-11-23T11:43:03;4.50;;;0.83;;
19084;SDS011;9675;51.538;6.728;2022-11-23T11:45:37;1.80;;;0.93;;
19084;SDS011;9675;51.538;6.728;2022-11-23T11:48:11;8.23;;;1.00;;
19084;SDS011;9675;51.538;6.728;2022-11-23T11:50:46;7.40;;;1.13;;
19084;SDS011;9675;51.538;6.728;2022-11-23T11:53:22;10.30;;;1.37;;
19084;SDS011;9675;51.538;6.728;2022-11-23T11:55:56;3.03;;;1.17;;
19084;SDS011;9675;51.538;6.728;2022-11-23T11:58:29;4.47;;;0.80;;
19084;SDS011;9675;51.538;6.728;2022-11-23T12:01:03;2.97;;;0.47;;
19084;SDS011;9675;51.538;6.728;2022-11-23T12:04:03;3.13;;;0.70;;
19084;SDS011;9675;51.538;6.728;2022-11-23T12:06:50;1.17;;;0.43;;
19084;SDS011;9675;51.538;6.728;2022-11-23T12:09:29;3.63;;;0.77;;
19084;SDS011;9675;51.538;6.728;2022-11-23T12:12:02;2.03;;;0.80;;
19084;SDS011;9675;51.538;6.728;2022-11-23T12:14:37;4.97;;;1.20;;
19084;SDS011;9675;51.538;6.728;2022-11-23T12:17:04;9.83;;;0.50;;
19084;SDS011;9675;51.538;6.728;2022-11-23T12:19:49;1.87;;;0.87;;
19084;SDS011;9675;51.538;6.728;2022-11-23T12:22:35;3.27;;;0.70;;
19084;SDS011;9675;51.538;6.728;2022-11-23T12:25:23;3.57;;;1.00;;
19084;SDS011;9675;51.538;6.728;2022-11-23T12:28:04;5.90;;;1.10;;
19084;SDS011;9675;51.538;6.728;2022-11-23T12:30:50;1.20;;;0.33;;
19084;SDS011;9675;51.538;6.728;2022-11-23T12:33:39;6.23;;;1.00;;
19084;SDS011;9675;51.538;6.728;2022-11-23T12:36:29;2.60;;;0.57;;
19084;SDS011;9675;51.538;6.728;2022-11-23T12:39:18;2.47;;;0.70;;
19084;SDS011;9675;51.538;6.728;2022-11-23T12:42:14;2.90;;;0.87;;
19084;SDS011;9675;51.538;6.728;2022-11-23T12:44:52;5.03;;;0.67;;
19084;SDS011;9675;51.538;6.728;2022-11-23T12:47:49;6.20;;;0.73;;
19084;SDS011;9675;51.538;6.728;2022-11-23T12:50:34;4.63;;;0.70;;
19084;SDS011;9675;51.538;6.728;2022-11-23T12:53:17;2.13;;;0.67;;
19084;SDS011;9675;51.538;6.728;2022-11-23T12:56:17;5.23;;;0.80;;
19084;SDS011;9675;51.538;6.728;2022-11-23T12:59:00;0.87;;;0.27;;
19084;SDS011;9675;51.538;6.728;2022-11-23T13:01:30;2.03;;;0.53;;
19084;SDS011;9675;51.538;6.728;2022-11-23T13:04:14;3.53;;;1.07;;
19084;SDS011;9675;51.538;6.728;2022-11-23T13:07:27;0.77;;;0.40;;
19084;SDS011;9675;51.538;6.728;2022-11-23T13:10:39;2.87;;;0.90;;
19084;SDS011;9675;51.538;6.728;2022-11-23T13:13:25;6.90;;;0.50;;
19084;SDS011;9675;51.538;6.728;2022-11-23T13:16:20;7.67;;;0.60;;
19084;SDS011;9675;51.538;6.728;2022-11-23T13:19:24;1.17;;;0.50;;
19084;SDS011;9675;51.538;6.728;2022-11-23T13:22:08;0.40;;;0.40;;
19084;SDS011;9675;51.538;6.728;2022-11-23T13:24:58;6.50;;;0.73;;
19084;SDS011;9675;51.538;6.728;2022-11-23T13:27:59;2.43;;;0.80;;
19084;SDS011;9675;51.538;6.728;2022-11-23T13:30:29;1.97;;;0.50;;
19084;SDS011;9675;51.538;6.728;2022-11-23T13:33:11;3.03;;;0.50;;
19084;SDS011;9675;51.538;6.728;2022-11-23T13:35:53;1.00;;;0.50;;
19084;SDS011;9675;51.538;6.728;2022-11-23T13:38:24;1.87;;;0.60;;
19084;SDS011;9675;51.538;6.728;2022-11-23T13:44:25;2.50;;;0.50;;
19084;SDS011;9675;51.538;6.728;2022-11-23T13:46:56;1.17;;;0.50;;
19084;SDS011;9675;51.538;6.728;2022-11-23T13:49:30;3.70;;;0.73;;
19084;SDS011;9675;51.538;6.728;2022-11-23T13:52:04;2.27;;;0.80;;
19084;SDS011;9675;51.538;6.728;2022-11-23T14:01:02;1.33;;;0.60;;
19084;SDS011;9675;51.538;6.728;2022-11-23T14:03:45;2.83;;;0.53;;
19084;SDS011;9675;51.538;6.728;2022-11-23T14:06:35;2.87;;;0.80;;
19084;SDS011;9675;51.538;6.728;2022-11-23T14:09:13;3.17;;;0.87;;
19084;SDS011;9675;51.538;6.728;2022-11-23T14:11:55;5.03;;;1.30;;
19084;SDS011;9675;51.538;6.728;2022-11-23T14:17:35;2.70;;;0.90;;
19084;SDS011;9675;51.538;6.728;2022-11-23T14:26:56;4.40;;;1.20;;
19084;SDS011;9675;51.538;6.728;2022-11-23T14:29:52;6.97;;;0.70;;
19084;SDS011;9675;51.538;6.728;2022-11-23T14:32:55;7.20;;;1.83;;
19084;SDS011;9675;51.538;6.728;2022-11-23T14:35:40;8.03;;;1.60;;
19084;SDS011;9675;51.538;6.728;2022-11-23T14:38:24;5.93;;;1.20;;
19084;SDS011;9675;51.538;6.728;2022-11-23T14:41:34;7.30;;;0.97;;
19084;SDS011;9675;51.538;6.728;2022-11-23T14:44:07;5.83;;;1.17;;
19084;SDS011;9675;51.538;6.728;2022-11-23T14:49:25;4.93;;;1.57;;
19084;SDS011;9675;51.538;6.728;2022-11-23T14:51:53;6.07;;;1.97;;
19084;SDS011;9675;51.538;6.728;2022-11-23T14:54:21;4.83;;;1.33;;
19084;SDS011;9675;51.538;6.728;2022-11-23T14:56:51;4.17;;;1.17;;
19084;SDS011;9675;51.538;6.728;2022-11-23T14:59:24;2.77;;;1.00;;
19084;SDS011;9675;51.538;6.728;2022-11-23T15:01:55;2.67;;;0.80;;
19084;SDS011;9675;51.538;6.728;2022-11-23T15:04:25;3.63;;;0.63;;
19084;SDS011;9675;51.538;6.728;2022-11-23T15:06:59;3.63;;;0.80;;
19084;SDS011;9675;51.538;6.728;2022-11-23T15:09:36;2.20;;;0.60;;
19084;SDS011;9675;51.538;6.728;2022-11-23T15:12:20;3.43;;;0.93;;
19084;SDS011;9675;51.538;6.728;2022-11-23T15:14:51;3.13;;;1.10;;
19084;SDS011;9675;51.538;6.728;2022-11-23T15:17:21;7.70;;;1.60;;
19084;SDS011;9675;51.538;6.728;2022-11-23T15:19:53;4.67;;;1.17;;
19084;SDS011;9675;51.538;6.728;2022-11-23T15:22:22;8.10;;;1.57;;
19084;SDS011;9675;51.538;6.728;2022-11-23T15:24:51;5.83;;;1.30;;
19084;SDS011;9675;51.538;6.728;2022-11-23T15:27:21;7.17;;;1.73;;
19084;SDS011;9675;51.538;6.728;2022-11-23T15:29:54;5.63;;;2.07;;
19084;SDS011;9675;51.538;6.728;2022-11-23T15:32:24;5.47;;;1.80;;
19084;SDS011;9675;51.538;6.728;2022-11-23T15:34:54;6.63;;;2.03;;
19084;SDS011;9675;51.538;6.728;2022-11-23T15:37:25;4.37;;;1.37;;
19084;SDS011;9675;51.538;6.728;2022-11-23T15:39:54;3.50;;;1.00;;
19084;SDS011;9675;51.538;6.728;2022-11-23T15:42:24;3.67;;;1.10;;
19084;SDS011;9675;51.538;6.728;2022-11-23T15:44:52;4.13;;;1.20;;
19084;SDS011;9675;51.538;6.728;2022-11-23T15:47:20;2.80;;;1.10;;
19084;SDS011;9675;51.538;6.728;2022-11-23T15:49:57;2.00;;;0.90;;
19084;SDS011;9675;51.538;6.728;2022-11-23T15:52:27;10.10;;;1.57;;